Time;durP1;ratioP1;P1;durP2;ratioP2;P2;SDS_P1;SDS_P2;PMS_P1;PMS_P2;Temp;Humidity;BMP_temperature;BMP_pressure;BME280_temperature;BME280_humidity;BME280_pressure;Samples;Min_cycle;Max_cycle;Signal;HPM_P1;HPM_P2
2022/08/31 00:06:02;;;;;;;18.52;8.03;;;24.10;84.60;;;;;;1816015;79;21054;-61
2022/08/31 00:08:32;;;;;;;11.97;7.45;;;24.10;84.50;;;;;;1815872;79;21088;-61
2022/08/31 00:11:02;;;;;;;11.30;7.55;;;24.10;84.50;;;;;;1815903;79;21026;-61
2022/08/31 00:13:31;;;;;;;9.25;7.12;;;24.10;84.50;;;;;;1815923;79;21136;-61
2022/08/31 00:16:00;;;;;;;13.95;7.58;;;24.10;84.50;;;;;;1816015;78;21080;-62
2022/08/31 00:18:30;;;;;;;11.50;7.45;;;24.20;84.60;;;;;;1815982;79;21051;-62
2022/08/31 00:21:00;;;;;;;10.10;6.72;;;24.20;84.60;;;;;;1815860;78;21095;-62
2022/08/31 00:23:29;;;;;;;13.10;7.92;;;24.20;84.50;;;;;;1815883;79;21036;-62
2022/08/31 00:25:59;;;;;;;14.13;7.75;;;24.20;84.40;;;;;;1815930;78;21062;-62
2022/08/31 00:28:28;;;;;;;12.18;6.85;;;24.20;84.50;;;;;;1815980;78;21029;-62
2022/08/31 00:30:58;;;;;;;9.08;6.45;;;24.20;84.50;;;;;;1815969;79;21010;-62
2022/08/31 00:33:27;;;;;;;12.53;7.55;;;24.20;84.60;;;;;;1815963;79;21046;-63
2022/08/31 00:35:57;;;;;;;14.58;7.42;;;24.20;84.70;;;;;;1815907;79;21046;-62
2022/08/31 00:38:27;;;;;;;13.65;8.00;;;24.10;84.60;;;;;;1815930;78;21162;-62
2022/08/31 00:40:56;;;;;;;11.83;8.28;;;24.20;84.70;;;;;;1815937;79;21081;-62
2022/08/31 00:43:37;;;;;;;11.90;7.67;;;24.10;84.60;;;;;;1815907;78;21081;-61
2022/08/31 00:46:09;;;;;;;13.05;7.70;;;24.10;84.70;;;;;;1816012;79;21104;-61
2022/08/31 00:48:41;;;;;;;15.25;7.75;;;24.10;84.80;;;;;;1815828;79;21037;-61
2022/08/31 00:51:11;;;;;;;10.05;8.40;;;24.10;84.90;;;;;;1815898;78;21103;-61
2022/08/31 00:53:43;;;;;;;14.07;8.18;;;24.10;84.80;;;;;;1815856;78;21034;-61
2022/08/31 00:56:12;;;;;;;16.17;7.72;;;24.10;84.70;;;;;;1816020;78;21117;-61
2022/08/31 00:58:43;;;;;;;15.75;8.10;;;24.10;84.60;;;;;;1815946;78;21532;-61
2022/08/31 01:01:12;;;;;;;12.82;6.35;;;24.00;84.60;;;;;;1815835;78;21030;-61
2022/08/31 01:03:42;;;;;;;13.35;7.08;;;23.90;84.90;;;;;;1819878;78;21045;-62
2022/08/31 01:06:12;;;;;;;9.13;7.22;;;23.80;85.10;;;;;;1822171;78;21005;-62
2022/08/31 01:08:41;;;;;;;11.03;7.53;;;23.80;85.30;;;;;;1822239;79;21087;-62
2022/08/31 01:11:11;;;;;;;13.15;7.80;;;23.80;85.30;;;;;;1822197;78;21119;-62
2022/08/31 01:13:41;;;;;;;12.60;8.35;;;23.80;85.40;;;;;;1822119;79;21155;-62
2022/08/31 01:16:12;;;;;;;15.18;8.18;;;23.80;85.40;;;;;;1822185;78;21089;-62
2022/08/31 01:18:43;;;;;;;9.50;7.35;;;23.90;85.40;;;;;;1821707;78;21514;-62
2022/08/31 01:21:18;;;;;;;10.48;6.62;;;23.90;85.30;;;;;;1822147;78;21107;-62
2022/08/31 01:23:47;;;;;;;17.45;7.53;;;23.90;85.30;;;;;;1822165;78;21025;-62
2022/08/31 01:26:19;;;;;;;9.53;6.40;;;23.90;85.30;;;;;;1822289;79;21579;-62
2022/08/31 01:28:52;;;;;;;11.35;7.40;;;23.80;85.20;;;;;;1822249;78;21589;-62
2022/08/31 01:31:27;;;;;;;13.65;8.48;;;23.80;85.40;;;;;;1822418;78;21160;-62
2022/08/31 01:33:57;;;;;;;16.30;7.72;;;23.80;85.40;;;;;;1822362;78;21613;-62
2022/08/31 01:36:28;;;;;;;9.85;7.55;;;23.80;85.40;;;;;;1822371;79;21182;-62
2022/08/31 01:38:58;;;;;;;11.05;7.78;;;23.80;85.40;;;;;;1822224;79;21009;-62
2022/08/31 01:41:27;;;;;;;15.08;8.23;;;23.70;85.50;;;;;;1822218;78;21162;-62
2022/08/31 01:43:56;;;;;;;10.88;6.92;;;23.70;85.70;;;;;;1822210;78;21195;-62
2022/08/31 01:46:26;;;;;;;12.50;7.42;;;23.70;85.80;;;;;;1822253;78;21113;-62
2022/08/31 01:48:55;;;;;;;12.25;6.90;;;23.70;85.80;;;;;;1822351;79;21050;-62
2022/08/31 01:51:25;;;;;;;19.40;9.10;;;23.70;85.80;;;;;;1822188;79;21111;-62
2022/08/31 01:53:54;;;;;;;15.53;8.30;;;23.80;85.80;;;;;;1822231;78;21041;-62
2022/08/31 01:56:26;;;;;;;14.58;7.97;;;23.70;85.60;;;;;;1822287;79;21030;-62
2022/08/31 01:58:57;;;;;;;15.00;8.63;;;23.70;85.60;;;;;;1822617;79;21074;-62
2022/08/31 02:01:47;;;;;;;19.77;8.80;;;23.70;85.60;;;;;;1822132;78;21053;-62
2022/08/31 02:04:19;;;;;;;14.98;8.00;;;23.60;85.60;;;;;;1818265;78;21128;-62
2022/08/31 02:06:51;;;;;;;15.83;7.60;;;23.60;85.80;;;;;;1815971;78;21082;-62
2022/08/31 02:09:21;;;;;;;13.55;8.45;;;23.60;86.00;;;;;;1815941;79;21133;-62
2022/08/31 02:11:59;;;;;;;13.20;8.03;;;23.60;86.10;;;;;;1816043;79;21042;-62
2022/08/31 02:14:38;;;;;;;12.13;7.85;;;23.60;85.80;;;;;;1962853;73;21066;-62
2022/08/31 02:17:07;;;;;;;13.35;8.23;;;23.50;85.70;;;;;;1972060;73;21068;-62
2022/08/31 02:19:37;;;;;;;11.88;7.53;;;23.50;85.90;;;;;;1972035;72;20987;-62
2022/08/31 02:22:07;;;;;;;10.55;7.92;;;23.50;86.10;;;;;;1971968;73;21010;-63
2022/08/31 02:24:36;;;;;;;10.23;7.53;;;23.50;86.10;;;;;;1971933;73;21064;-62
2022/08/31 02:27:06;;;;;;;12.28;8.28;;;23.50;86.20;;;;;;1971942;72;21096;-62
2022/08/31 02:29:35;;;;;;;20.12;8.70;;;23.40;86.20;;;;;;1942477;73;20978;-62
2022/08/31 02:32:05;;;;;;;14.50;8.55;;;23.50;86.20;;;;;;1971954;73;21080;-62
2022/08/31 02:34:35;;;;;;;14.85;7.75;;;23.50;86.20;;;;;;1971950;73;21023;-62
2022/08/31 02:37:04;;;;;;;12.18;7.62;;;23.50;86.30;;;;;;1971889;73;21019;-62
2022/08/31 02:39:34;;;;;;;14.68;8.30;;;23.40;86.30;;;;;;1972022;73;21044;-62
2022/08/31 02:42:03;;;;;;;16.87;8.63;;;23.40;86.40;;;;;;1972128;73;21068;-62
2022/08/31 02:44:32;;;;;;;16.62;7.00;;;23.40;86.30;;;;;;1972062;73;21015;-62
2022/08/31 02:47:02;;;;;;;16.90;7.78;;;23.30;86.40;;;;;;1972028;72;21006;-62
2022/08/31 02:49:35;;;;;;;13.03;7.55;;;23.30;86.70;;;;;;1948758;73;21083;-62
2022/08/31 02:52:05;;;;;;;11.88;8.15;;;23.30;86.80;;;;;;1971944;73;20995;-62
2022/08/31 02:54:34;;;;;;;18.42;9.23;;;23.30;86.80;;;;;;1971972;73;20978;-62
2022/08/31 02:57:04;;;;;;;15.00;8.70;;;23.30;86.80;;;;;;1971837;73;21006;-62
2022/08/31 02:59:34;;;;;;;11.38;8.70;;;23.30;86.50;;;;;;1972069;72;21036;-62
2022/08/31 03:02:03;;;;;;;10.63;7.95;;;23.30;86.60;;;;;;1971816;72;21088;-62
2022/08/31 03:04:33;;;;;;;10.55;7.40;;;23.30;86.60;;;;;;1971932;72;21085;-62
2022/08/31 03:07:03;;;;;;;11.73;8.90;;;23.30;86.80;;;;;;1971901;73;21019;-62
2022/08/31 03:09:33;;;;;;;16.90;8.30;;;23.30;86.60;;;;;;1971894;72;21006;-62
2022/08/31 03:12:04;;;;;;;17.55;8.58;;;23.30;86.50;;;;;;1971871;73;21060;-62
2022/08/31 03:14:33;;;;;;;18.57;9.10;;;23.30;86.60;;;;;;1951961;72;20994;-62
2022/08/31 03:17:03;;;;;;;12.00;8.40;;;23.20;86.70;;;;;;1985453;72;21002;-62
2022/08/31 03:19:34;;;;;;;11.60;8.85;;;23.20;87.00;;;;;;1985125;72;21026;-62
2022/08/31 03:22:05;;;;;;;13.38;9.10;;;23.10;87.10;;;;;;1985541;72;21022;-62
2022/08/31 03:24:34;;;;;;;14.30;9.13;;;23.10;87.30;;;;;;1985405;72;21059;-62
2022/08/31 03:27:03;;;;;;;12.05;8.65;;;23.10;87.30;;;;;;1985276;72;21067;-62
2022/08/31 03:29:32;;;;;;;12.28;8.55;;;23.20;87.40;;;;;;1985505;72;21012;-62
2022/08/31 03:32:06;;;;;;;12.20;9.55;;;23.20;87.40;;;;;;1976598;72;21050;-62
2022/08/31 03:34:37;;;;;;;10.70;8.88;;;23.30;87.30;;;;;;1985537;72;21510;-62
2022/08/31 03:37:07;;;;;;;14.98;8.53;;;23.30;87.20;;;;;;1985381;72;21040;-62
2022/08/31 03:39:37;;;;;;;13.30;8.55;;;23.30;87.20;;;;;;1985384;72;21445;-62
2022/08/31 03:42:07;;;;;;;21.68;9.45;;;23.40;87.20;;;;;;1985365;72;21084;-62
2022/08/31 03:44:36;;;;;;;15.32;10.00;;;23.50;87.20;;;;;;1985472;72;21059;-62
2022/08/31 03:47:08;;;;;;;15.90;9.73;;;23.50;87.10;;;;;;1984743;72;21046;-62
2022/08/31 03:49:37;;;;;;;15.68;9.53;;;23.60;87.00;;;;;;1985389;72;21048;-62
2022/08/31 03:52:14;;;;;;;14.20;10.18;;;23.70;87.00;;;;;;1983069;72;21116;-62
2022/08/31 03:54:48;;;;;;;17.73;10.50;;;23.70;86.80;;;;;;1985452;72;21104;-62
2022/08/31 03:57:18;;;;;;;16.10;10.18;;;23.80;87.30;;;;;;1985349;72;21087;-62
2022/08/31 03:59:48;;;;;;;15.58;9.93;;;23.90;86.80;;;;;;1985327;72;21025;-62
2022/08/31 04:02:22;;;;;;;24.25;10.05;;;24.00;86.60;;;;;;1985658;72;21057;-62
2022/08/31 04:04:59;;;;;;;12.50;10.05;;;24.10;86.50;;;;;;1981026;72;21030;-62
2022/08/31 04:07:40;;;;;;;17.37;10.72;;;24.30;86.30;;;;;;1980889;72;21141;-62
2022/08/31 04:10:27;;;;;;;16.80;10.00;;;24.30;85.80;;;;;;1985323;72;21022;-62
2022/08/31 04:13:14;;;;;;;15.93;11.40;;;24.30;85.50;;;;;;1985439;72;21052;-62
2022/08/31 04:15:45;;;;;;;15.65;10.30;;;24.40;85.40;;;;;;1915599;72;21488;-62
2022/08/31 04:18:32;;;;;;;17.67;10.88;;;24.30;85.30;;;;;;1984701;72;21021;-62
2022/08/31 04:21:01;;;;;;;20.23;10.50;;;24.40;85.40;;;;;;1984718;72;21550;-62
2022/08/31 04:23:31;;;;;;;18.15;9.78;;;24.40;85.50;;;;;;1984612;72;20982;-62
2022/08/31 04:26:00;;;;;;;24.10;11.50;;;24.50;85.40;;;;;;1984676;72;20970;-62
2022/08/31 04:28:30;;;;;;;17.98;9.93;;;24.50;85.20;;;;;;1984624;72;21067;-63
2022/08/31 04:31:00;;;;;;;13.08;9.90;;;24.60;85.10;;;;;;1984675;72;21048;-62
2022/08/31 04:33:30;;;;;;;14.55;10.10;;;24.60;85.00;;;;;;1984165;72;21452;-63
2022/08/31 04:35:59;;;;;;;23.67;10.50;;;24.70;85.00;;;;;;1984620;72;20998;-63
2022/08/31 04:38:30;;;;;;;20.60;10.80;;;24.80;84.90;;;;;;1984753;72;21080;-63
2022/08/31 04:41:00;;;;;;;15.93;10.10;;;24.90;84.90;;;;;;1984663;72;21022;-63
2022/08/31 04:43:29;;;;;;;16.67;10.75;;;25.00;84.90;;;;;;1984681;72;20994;-63
2022/08/31 04:45:59;;;;;;;17.30;9.75;;;25.10;84.80;;;;;;1984779;72;21071;-63
2022/08/31 04:48:29;;;;;;;18.02;11.00;;;25.10;84.40;;;;;;1984675;72;21055;-63
2022/08/31 04:51:03;;;;;;;16.50;10.03;;;25.30;85.00;;;;;;1984656;72;20982;-63
2022/08/31 04:53:31;;;;;;;;;;;25.30;84.20;;;;;;1987670;72;21529;-63
2022/08/31 04:56:13;;;;;;;19.37;10.20;;;25.40;83.90;;;;;;1984812;72;20353;-63
2022/08/31 04:58:40;;;;;;;16.70;10.03;;;25.50;83.90;;;;;;1984421;72;21475;-62
2022/08/31 05:01:12;;;;;;;15.72;9.60;;;25.50;83.50;;;;;;1984528;72;20994;-63
2022/08/31 05:04:00;;;;;;;22.27;10.03;;;25.70;83.40;;;;;;1984788;72;21104;-63
2022/08/31 05:06:32;;;;;;;41.80;29.52;;;25.70;82.90;;;;;;1984640;72;20974;-63
2022/08/31 05:09:03;;;;;;;18.45;12.03;;;25.80;82.70;;;;;;1984638;72;21051;-63
2022/08/31 05:11:33;;;;;;;24.55;11.40;;;25.90;82.60;;;;;;1984527;72;21030;-62
2022/08/31 05:14:04;;;;;;;19.48;11.50;;;25.90;82.50;;;;;;1984625;72;21475;-62
2022/08/31 05:16:34;;;;;;;18.27;10.03;;;25.90;82.40;;;;;;1968636;72;21096;-63
2022/08/31 05:19:04;;;;;;;16.97;10.13;;;26.00;82.30;;;;;;1967955;73;20979;-62
2022/08/31 05:21:36;;;;;;;18.87;10.63;;;26.10;82.20;;;;;;1968263;73;21014;-63
2022/08/31 05:24:08;;;;;;;19.98;14.25;;;26.10;82.20;;;;;;1968002;73;21067;-63
2022/08/31 05:26:43;;;;;;;19.90;11.00;;;26.20;82.10;;;;;;1967988;72;21055;-63
2022/08/31 05:29:13;;;;;;;35.15;12.07;;;26.30;81.90;;;;;;1967670;73;21132;-62
2022/08/31 05:31:44;;;;;;;14.28;9.03;;;26.30;81.30;;;;;;1967982;73;21038;-63
2022/08/31 05:34:14;;;;;;;16.17;10.10;;;26.40;81.40;;;;;;1967828;73;21099;-63
2022/08/31 05:36:45;;;;;;;16.93;9.75;;;26.40;81.40;;;;;;1967987;72;20963;-63
2022/08/31 05:39:14;;;;;;;18.12;10.55;;;26.50;81.40;;;;;;1967918;72;21057;-62
2022/08/31 05:41:45;;;;;;;14.33;9.40;;;26.60;81.30;;;;;;1967980;73;20975;-62
2022/08/31 05:44:15;;;;;;;18.92;10.70;;;26.70;81.10;;;;;;1967892;73;21027;-63
2022/08/31 05:46:45;;;;;;;19.87;10.78;;;26.70;80.80;;;;;;1967976;73;21052;-62
2022/08/31 05:49:15;;;;;;;17.20;11.88;;;26.80;80.40;;;;;;1967816;72;21479;-65
2022/08/31 05:51:44;;;;;;;23.30;11.70;;;26.90;80.10;;;;;;1967876;73;20971;-63
2022/08/31 05:54:14;;;;;;;23.47;11.68;;;26.80;79.70;;;;;;1967940;72;21002;-63
2022/08/31 05:56:44;;;;;;;21.52;11.80;;;26.90;79.50;;;;;;1968182;73;21068;-63
2022/08/31 05:59:14;;;;;;;16.48;10.13;;;27.00;79.40;;;;;;1967989;72;21003;-62
2022/08/31 06:01:43;;;;;;;18.62;10.72;;;27.00;79.40;;;;;;1967895;72;20994;-62
2022/08/31 06:04:18;;;;;;;19.25;11.50;;;27.10;79.40;;;;;;1967948;72;21055;-64
2022/08/31 06:06:47;;;;;;;18.35;11.00;;;27.10;79.20;;;;;;1967937;73;21003;-62
2022/08/31 06:09:18;;;;;;;27.58;12.73;;;27.20;79.00;;;;;;1967769;72;21135;-62
2022/08/31 06:11:48;;;;;;;23.47;11.15;;;27.30;79.00;;;;;;1968176;72;20979;-62
2022/08/31 06:14:21;;;;;;;28.15;12.65;;;27.30;78.80;;;;;;1968176;72;20991;-62
2022/08/31 06:16:49;;;;;;;25.77;11.95;;;27.40;78.80;;;;;;1971354;72;21050;-62
2022/08/31 06:19:21;;;;;;;42.50;13.65;;;27.50;78.80;;;;;;1971713;72;20989;-62
2022/08/31 06:21:51;;;;;;;22.05;12.28;;;27.50;79.10;;;;;;1971727;73;20994;-61
2022/08/31 06:24:25;;;;;;;26.55;13.55;;;27.50;78.90;;;;;;1971779;73;21009;-63
2022/08/31 06:26:57;;;;;;;19.25;12.33;;;27.60;79.00;;;;;;1971938;73;21076;-63
2022/08/31 06:29:33;;;;;;;22.13;12.50;;;27.70;79.10;;;;;;1971719;73;21026;-63
2022/08/31 06:32:04;;;;;;;27.80;15.18;;;27.70;78.80;;;;;;1970992;73;20991;-63
2022/08/31 06:34:32;;;;;;;24.70;13.20;;;27.80;78.70;;;;;;1971523;73;21397;-63
2022/08/31 06:37:03;;;;;;;23.73;15.25;;;27.80;78.30;;;;;;1968984;73;21126;-63
2022/08/31 06:39:53;;;;;;;28.90;16.67;;;27.80;78.20;;;;;;1968739;73;21084;-63
2022/08/31 06:42:40;;;;;;;25.50;15.08;;;27.90;78.00;;;;;;1971682;73;21006;-62
2022/08/31 06:45:12;;;;;;;22.87;13.20;;;27.90;77.70;;;;;;1967706;73;20999;-62
2022/08/31 06:47:46;;;;;;;26.80;15.10;;;27.90;77.60;;;;;;1910805;73;21069;-62
2022/08/31 06:50:16;;;;;;;30.40;15.65;;;28.00;77.50;;;;;;1971931;73;21010;-62
2022/08/31 06:52:47;;;;;;;26.95;14.10;;;28.00;76.90;;;;;;1971842;72;20995;-62
2022/08/31 06:55:21;;;;;;;28.07;15.25;;;28.10;76.20;;;;;;1969930;73;21042;-62
2022/08/31 06:58:09;;;;;;;27.52;15.65;;;28.20;76.30;;;;;;1971918;73;21011;-62
2022/08/31 07:00:57;;;;;;;23.35;14.28;;;28.20;75.80;;;;;;1971747;73;21078;-62
2022/08/31 07:03:34;;;;;;;33.92;16.60;;;28.30;75.90;;;;;;1969649;73;21129;-62
2022/08/31 07:06:13;;;;;;;40.15;17.30;;;28.30;76.40;;;;;;1971798;72;21103;-62
2022/08/31 07:08:43;;;;;;;31.82;17.70;;;28.40;75.70;;;;;;1971779;72;21108;-62
2022/08/31 07:11:19;;;;;;;20.15;9.85;;;28.50;75.50;;;;;;1971809;73;20982;-62
2022/08/31 07:13:50;;;;;;;18.02;9.73;;;28.60;74.40;;;;;;1971968;73;20987;-62
2022/08/31 07:16:22;;;;;;;13.28;8.20;;;28.70;73.30;;;;;;1970290;72;21103;-64
2022/08/31 07:18:53;;;;;;;15.00;9.10;;;28.70;72.70;;;;;;1966893;73;21154;-62
2022/08/31 07:21:27;;;;;;;17.00;9.08;;;28.80;72.40;;;;;;1955464;73;20994;-62
2022/08/31 07:24:24;;;;;;;16.70;8.08;;;28.90;71.60;;;;;;1934767;73;21103;-62
2022/08/31 07:26:59;;;;;;;15.95;9.33;;;29.00;71.40;;;;;;1918484;74;21109;-63
2022/08/31 07:29:39;;;;;;;15.68;9.18;;;29.10;71.20;;;;;;1927542;74;21042;-63
2022/08/31 07:32:07;;;;;;;22.37;10.48;;;29.20;71.10;;;;;;1932507;73;20991;-63
2022/08/31 07:34:37;;;;;;;15.15;9.25;;;29.20;70.20;;;;;;1912957;74;21018;-64
2022/08/31 07:43:03;;;;;;;14.00;7.90;;;29.40;68.70;;;;;;1918119;74;21022;-64
2022/08/31 07:45:34;;;;;;;14.63;9.45;;;29.50;67.70;;;;;;1918017;74;21003;-64
2022/08/31 07:48:03;;;;;;;21.33;10.28;;;29.50;68.00;;;;;;1917913;74;21028;-64
2022/08/31 07:50:49;;;;;;;10.90;7.47;;;29.60;67.70;;;;;;1913163;74;21049;-67
2022/08/31 07:53:26;;;;;;;13.83;8.20;;;29.70;67.00;;;;;;1899962;74;21138;-63
2022/08/31 07:55:59;;;;;;;12.93;7.08;;;29.80;67.20;;;;;;1917404;74;21084;-63
2022/08/31 07:58:41;;;;;;;11.93;6.28;;;29.80;66.90;;;;;;1922990;74;21139;-68
2022/08/31 08:01:13;;;;;;;21.15;6.33;;;29.90;66.50;;;;;;1911293;73;21043;-61
2022/08/31 08:03:43;;;;;;;12.60;7.10;;;29.90;65.90;;;;;;1899524;75;22117;-64
2022/08/31 08:06:31;;;;;;;11.12;5.95;;;30.00;65.40;;;;;;1898969;74;21122;-67
2022/08/31 08:09:11;;;;;;;10.72;5.50;;;30.10;65.50;;;;;;1898821;75;21089;-64
2022/08/31 08:11:53;;;;;;;10.78;5.40;;;30.10;65.70;;;;;;1897910;75;21074;-63
2022/08/31 08:14:24;;;;;;;7.87;5.30;;;30.20;64.70;;;;;;1882476;75;21045;-65
2022/08/31 08:16:58;;;;;;;9.08;4.90;;;30.20;64.90;;;;;;1896363;75;21139;-66
2022/08/31 08:19:36;;;;;;;7.55;5.30;;;30.20;64.00;;;;;;1897010;75;21133;-64
2022/08/31 08:22:04;;;;;;;12.82;5.50;;;30.30;63.70;;;;;;1897404;75;21564;-64
2022/08/31 08:24:35;;;;;;;10.32;5.62;;;30.30;64.20;;;;;;1895753;75;21616;-64
2022/08/31 08:27:06;;;;;;;15.70;5.78;;;30.40;63.20;;;;;;1900943;75;21042;-66
2022/08/31 08:29:44;;;;;;;30.57;23.05;;;30.40;62.60;;;;;;1883314;75;21479;-63
2022/08/31 08:32:15;;;;;;;12.78;6.12;;;30.50;62.70;;;;;;1900306;75;21081;-70
2022/08/31 08:34:44;;;;;;;11.48;5.65;;;30.50;62.80;;;;;;1901157;75;21086;-66
2022/08/31 08:37:14;;;;;;;8.48;5.87;;;30.50;62.40;;;;;;1900966;75;21074;-66
2022/08/31 08:39:43;;;;;;;16.07;6.35;;;30.50;62.00;;;;;;1918512;74;21069;-62
2022/08/31 08:42:16;;;;;;;11.18;5.78;;;30.50;62.50;;;;;;1933842;74;21069;-62
2022/08/31 08:44:45;;;;;;;7.72;6.17;;;30.60;63.00;;;;;;1936123;74;21085;-65
2022/08/31 08:47:21;;;;;;;7.67;5.10;;;30.60;62.50;;;;;;1936161;74;21540;-63
2022/08/31 08:49:52;;;;;;;14.35;6.20;;;30.70;61.60;;;;;;1935539;74;21061;-65
2022/08/31 08:52:29;;;;;;;12.50;5.97;;;30.70;62.10;;;;;;1915253;73;21165;-68
2022/08/31 08:55:08;;;;;;;9.70;5.15;;;30.70;61.90;;;;;;1901591;75;21038;-65
2022/08/31 08:57:41;;;;;;;8.45;6.50;;;30.80;61.00;;;;;;1902871;75;21508;-64
2022/08/31 09:00:19;;;;;;;12.13;6.03;;;30.80;61.40;;;;;;1902777;74;21065;-64
2022/08/31 09:02:57;;;;;;;14.78;6.55;;;30.80;61.80;;;;;;1916403;74;21147;-63
2022/08/31 09:05:36;;;;;;;8.75;5.75;;;30.90;60.40;;;;;;1932859;74;21096;-63
2022/08/31 09:08:31;;;;;;;10.10;6.87;;;30.80;60.50;;;;;;1933881;74;21057;-67
2022/08/31 09:11:17;;;;;;;8.95;6.37;;;30.90;60.60;;;;;;1936139;73;21003;-66
2022/08/31 09:14:17;;;;;;;12.45;5.80;;;30.90;60.70;;;;;;1935940;73;21128;-65
2022/08/31 09:16:49;;;;;;;15.30;9.00;;;31.00;61.10;;;;;;1935823;73;21080;-64
2022/08/31 09:19:20;;;;;;;13.38;6.87;;;31.00;61.30;;;;;;1900554;74;21144;-65
2022/08/31 09:21:52;;;;;;;9.95;6.70;;;31.10;61.40;;;;;;1936055;74;21092;-65
2022/08/31 09:24:25;;;;;;;14.07;6.28;;;31.10;60.90;;;;;;1936154;74;21089;-65
2022/08/31 09:27:17;;;;;;;9.98;5.40;;;31.10;60.40;;;;;;1934707;74;21097;-64
2022/08/31 09:29:59;;;;;;;12.75;5.50;;;31.10;60.00;;;;;;1936046;74;21035;-68
2022/08/31 09:32:31;;;;;;;10.13;5.42;;;31.20;58.60;;;;;;1936021;74;21136;-73
2022/08/31 09:35:03;;;;;;;8.70;6.65;;;31.20;59.00;;;;;;1931248;74;21132;-64
2022/08/31 09:37:44;;;;;;;15.18;5.83;;;31.20;59.50;;;;;;1917143;74;21622;-65
2022/08/31 09:40:17;;;;;;;12.60;6.20;;;31.30;59.70;;;;;;1903739;74;21069;-71
2022/08/31 09:42:49;;;;;;;11.53;6.30;;;31.40;59.50;;;;;;1902578;75;21030;-70
2022/08/31 09:45:40;;;;;;;8.13;5.53;;;31.40;60.10;;;;;;1900821;75;21029;-68
2022/08/31 09:48:00;;;;;;;14.98;6.37;;;31.40;59.70;;;;;;1899911;74;21022;-68
2022/08/31 09:50:45;;;;;;;11.73;5.65;;;31.50;60.00;;;;;;1902908;74;21508;-67
2022/08/31 09:56:15;;;;;;;11.65;7.45;;;31.60;59.80;;;;;;1903211;75;21050;-66
2022/08/31 09:58:49;;;;;;;12.53;6.30;;;31.60;59.80;;;;;;1903129;75;21051;-69
2022/08/31 10:01:37;;;;;;;12.45;5.58;;;31.70;59.50;;;;;;1902269;75;21030;-69
2022/08/31 10:04:18;;;;;;;12.30;5.47;;;31.70;59.50;;;;;;1903180;75;21147;-74
2022/08/31 10:07:12;;;;;;;11.18;5.60;;;31.70;59.20;;;;;;1871849;73;21202;-67
2022/08/31 10:09:52;;;;;;;10.48;6.42;;;31.70;58.60;;;;;;1868731;76;21517;-69
2022/08/31 10:12:33;;;;;;;13.10;6.25;;;31.70;58.40;;;;;;1868559;76;21501;-71
2022/08/31 10:15:10;;;;;;;12.47;7.75;;;31.80;58.60;;;;;;1868122;76;21054;-72
2022/08/31 10:17:44;;;;;;;12.13;6.80;;;31.80;58.40;;;;;;1868381;76;21117;-73
2022/08/31 10:20:17;;;;;;;10.72;5.72;;;31.80;58.50;;;;;;1867284;76;21092;-72
2022/08/31 10:22:52;;;;;;;9.07;5.20;;;31.80;58.70;;;;;;1868893;76;21038;-64
2022/08/31 10:25:29;;;;;;;8.58;5.65;;;31.90;58.60;;;;;;1868556;77;21077;-71
2022/08/31 10:28:13;;;;;;;9.80;5.35;;;32.00;58.30;;;;;;1868256;76;21140;-66
2022/08/31 10:30:52;;;;;;;8.53;5.37;;;32.00;57.70;;;;;;1868219;76;21081;-77
2022/08/31 10:36:32;;;;;;;10.80;4.90;;;32.10;56.90;;;;;;1950244;73;21390;-66
2022/08/31 10:39:02;;;;;;;13.80;5.37;;;32.10;55.80;;;;;;1950407;73;21006;-63
2022/08/31 10:41:37;;;;;;;6.90;5.42;;;32.10;55.80;;;;;;1950354;73;21095;-71
2022/08/31 10:44:22;;;;;;;9.53;5.25;;;32.20;56.10;;;;;;1950317;73;21069;-73
2022/08/31 10:46:49;;;;;;;10.82;4.92;;;32.20;56.20;;;;;;1950967;72;21089;-68
2022/08/31 10:49:19;;;;;;;13.83;6.03;;;32.20;55.70;;;;;;1950270;73;21093;-68
2022/08/31 10:52:08;;;;;;;17.42;8.68;;;32.30;55.30;;;;;;1950303;73;21053;-67
2022/08/31 10:54:45;;;;;;;12.18;7.65;;;32.30;55.30;;;;;;1950567;72;22080;-67
2022/08/31 10:57:30;;;;;;;9.55;4.97;;;32.30;55.20;;;;;;1949858;73;21531;-71
2022/08/31 11:03:31;;;;;;;20.40;9.90;;;32.40;54.90;;;;;;1950529;73;21170;-67
2022/08/31 11:06:01;;;;;;;;;;;32.50;55.00;;;;;;1950738;73;21134;-64
2022/08/31 11:08:57;;;;;;;15.15;4.85;;;32.50;55.30;;;;;;1950423;73;20132;-67
2022/08/31 11:11:45;;;;;;;10.72;5.00;;;32.60;55.20;;;;;;1949480;73;21034;-76
2022/08/31 11:14:29;;;;;;;11.48;5.28;;;32.60;54.60;;;;;;1950513;73;21058;-79
2022/08/31 11:17:17;;;;;;;10.53;4.97;;;32.60;54.40;;;;;;1950636;73;21042;-66
2022/08/31 11:20:12;;;;;;;12.25;5.37;;;32.70;54.60;;;;;;1949908;73;21452;-71
2022/08/31 11:23:09;;;;;;;10.93;5.22;;;32.70;54.00;;;;;;1950814;73;21053;-77
2022/08/31 11:26:11;;;;;;;9.90;4.97;;;32.70;54.50;;;;;;1950579;73;20998;-73
2022/08/31 11:29:11;;;;;;;9.48;4.95;;;32.80;53.90;;;;;;1950526;73;21146;-70
2022/08/31 11:31:41;;;;;;;12.43;4.87;;;32.80;54.30;;;;;;1950454;72;21017;-67
2022/08/31 11:34:18;;;;;;;8.53;5.45;;;32.80;53.60;;;;;;1950334;72;21594;-65
2022/08/31 11:36:59;;;;;;;14.65;4.90;;;32.80;53.30;;;;;;1950378;73;21014;-70
2022/08/31 11:39:39;;;;;;;9.55;5.12;;;32.80;53.00;;;;;;1950399;73;21166;-68
2022/08/31 11:42:36;;;;;;;11.20;4.53;;;32.80;53.30;;;;;;1950239;73;21068;-65
2022/08/31 11:45:05;;;;;;;11.10;5.08;;;32.80;53.20;;;;;;1950177;72;21033;-66
2022/08/31 11:47:36;;;;;;;7.30;4.87;;;32.80;52.80;;;;;;1950358;73;21142;-74
2022/08/31 11:50:23;;;;;;;8.33;4.67;;;32.90;53.00;;;;;;1950405;73;21014;-72
2022/08/31 11:52:55;;;;;;;10.23;4.67;;;32.90;52.80;;;;;;1950359;73;20986;-75
2022/08/31 11:55:46;;;;;;;9.10;4.90;;;33.00;52.70;;;;;;1950357;73;21135;-76
2022/08/31 11:58:29;;;;;;;11.33;4.47;;;33.00;52.20;;;;;;1950579;73;21103;-74
2022/08/31 12:01:17;;;;;;;8.20;4.33;;;33.10;51.70;;;;;;1950557;73;21029;-68
2022/08/31 12:03:52;;;;;;;8.53;4.33;;;33.10;51.10;;;;;;1950447;73;21017;-69
2022/08/31 12:06:36;;;;;;;10.70;4.67;;;33.10;51.20;;;;;;1950339;73;21091;-70
2022/08/31 12:09:24;;;;;;;9.35;4.58;;;33.10;51.10;;;;;;1950461;72;21037;-71
2022/08/31 12:12:02;;;;;;;9.15;4.87;;;33.10;51.10;;;;;;1905186;73;21080;-77
2022/08/31 12:14:39;;;;;;;12.30;6.10;;;33.20;51.40;;;;;;1950384;73;21037;-73
2022/08/31 12:17:15;;;;;;;9.23;4.10;;;33.20;50.70;;;;;;1950499;73;21099;-69
2022/08/31 12:20:00;;;;;;;11.28;4.20;;;33.20;50.50;;;;;;1950294;73;21334;-69
2022/08/31 12:25:34;;;;;;;7.22;4.45;;;33.20;51.00;;;;;;1950417;73;21103;-67
2022/08/31 12:28:18;;;;;;;13.10;4.67;;;33.20;50.50;;;;;;1949709;73;21021;-64
2022/08/31 12:30:56;;;;;;;10.05;3.92;;;33.20;50.50;;;;;;1950487;73;21045;-65
2022/08/31 12:33:28;;;;;;;14.58;5.62;;;33.20;50.00;;;;;;1950379;73;21035;-67
2022/08/31 12:36:12;;;;;;;12.07;4.97;;;33.20;49.50;;;;;;1950380;73;21093;-66
2022/08/31 12:38:41;;;;;;;8.78;4.08;;;33.30;49.70;;;;;;1950591;73;21087;-63
2022/08/31 12:41:13;;;;;;;11.12;4.20;;;33.30;50.10;;;;;;1950272;73;21076;-58
2022/08/31 12:43:45;;;;;;;10.20;4.45;;;33.30;49.40;;;;;;1950418;73;21069;-58
2022/08/31 12:46:26;;;;;;;11.68;5.03;;;33.30;49.70;;;;;;1950551;73;21143;-59
2022/08/31 12:49:20;;;;;;;13.05;4.50;;;33.30;49.90;;;;;;1949736;73;21077;-62
2022/08/31 12:51:52;;;;;;;10.27;4.43;;;33.30;49.40;;;;;;1950615;73;21065;-58
2022/08/31 12:54:36;;;;;;;10.55;4.30;;;33.30;49.90;;;;;;1950231;73;21105;-58
2022/08/31 12:57:08;;;;;;;13.20;4.62;;;33.30;49.50;;;;;;1949802;73;21163;-57
2022/08/31 12:59:52;;;;;;;7.37;4.65;;;33.30;49.20;;;;;;1950405;73;21492;-57
2022/08/31 13:02:22;;;;;;;10.23;4.33;;;33.30;48.90;;;;;;1950543;73;21085;-59
2022/08/31 13:04:52;;;;;;;8.40;4.08;;;33.30;48.90;;;;;;1950296;73;21089;-55
2022/08/31 13:07:24;;;;;;;9.75;4.70;;;33.30;48.40;;;;;;1950348;73;21123;-59
2022/08/31 13:10:11;;;;;;;15.88;5.65;;;33.30;48.50;;;;;;1946278;73;21488;-59
2022/08/31 13:12:51;;;;;;;10.95;4.25;;;33.30;48.70;;;;;;1844690;73;21191;-59
2022/08/31 13:15:29;;;;;;;9.03;4.25;;;33.30;48.30;;;;;;1950189;72;21030;-59
2022/08/31 13:18:01;;;;;;;9.15;4.50;;;33.30;48.30;;;;;;1950318;73;21061;-59
2022/08/31 13:20:45;;;;;;;13.32;4.72;;;33.30;48.20;;;;;;1950428;73;21083;-59
2022/08/31 13:23:14;;;;;;;11.38;4.37;;;33.30;48.30;;;;;;1949846;72;21147;-59
2022/08/31 13:25:47;;;;;;;8.10;4.37;;;33.30;47.90;;;;;;1950393;73;20986;-60
2022/08/31 13:28:17;;;;;;;6.97;4.30;;;33.30;47.90;;;;;;1950777;72;21099;-60
2022/08/31 13:30:57;;;;;;;10.00;4.53;;;33.30;47.70;;;;;;1950151;73;21131;-59
2022/08/31 13:33:32;;;;;;;7.95;4.12;;;33.30;48.20;;;;;;1950685;73;20990;-59
2022/08/31 13:36:10;;;;;;;15.93;6.10;;;33.30;48.00;;;;;;1947154;72;21145;-59